Time;durP1;ratioP1;P1;durP2;ratioP2;P2;SDS_P1;SDS_P2;PMS_P1;PMS_P2;Temp;Humidity;BMP_temperature;BMP_pressure;BME280_temperature;BME280_humidity;BME280_pressure;Samples;Min_cycle;Max_cycle;Signal;HPM_P1;HPM_P2
2023/11/02 00:00:36;;;;;;;3.65;1.02;;;10.00;61.20;;;;;;5072872;28;20055;-72
2023/11/02 00:03:06;;;;;;;1.70;0.60;;;10.00;61.50;;;;;;5072664;28;20055;-77
2023/11/02 00:05:51;;;;;;;2.63;1.13;;;9.90;61.60;;;;;;5073148;28;20495;-75
2023/11/02 00:08:16;;;;;;;2.70;0.85;;;9.90;61.70;;;;;;5072847;28;20035;-76
2023/11/02 00:10:42;;;;;;;0.95;0.50;;;9.80;62.40;;;;;;5072654;28;20056;-73
2023/11/02 00:13:17;;;;;;;0.95;0.47;;;9.70;62.80;;;;;;5072728;28;20481;-74
2023/11/02 00:15:46;;;;;;;;;;;9.70;63.10;;;;;;5073562;28;20033;-75
2023/11/02 00:18:12;;;;;;;3.97;0.60;;;9.70;63.60;;;;;;5072939;28;19965;-72
2023/11/02 00:20:37;;;;;;;3.50;0.70;;;9.60;65.00;;;;;;5072840;28;20480;-74
2023/11/02 00:23:04;;;;;;;1.92;0.70;;;9.60;64.70;;;;;;5072754;28;20043;-74
2023/11/02 00:25:43;;;;;;;1.05;0.47;;;9.40;65.40;;;;;;5072983;28;20035;-76
2023/11/02 00:28:09;;;;;;;2.58;0.63;;;9.40;66.30;;;;;;5071327;28;20027;-78
2023/11/02 00:30:39;;;;;;;1.98;0.68;;;9.30;66.80;;;;;;5072639;28;20025;-72
2023/11/02 00:33:05;;;;;;;1.75;0.70;;;9.20;66.90;;;;;;5072575;28;20121;-75
2023/11/02 00:35:30;;;;;;;3.17;0.70;;;9.10;66.80;;;;;;5072862;28;20075;-74
2023/11/02 00:37:57;;;;;;;5.32;1.25;;;9.10;67.30;;;;;;5076693;28;20474;-76
2023/11/02 00:40:22;;;;;;;2.65;0.50;;;9.10;66.90;;;;;;5075339;28;20028;-77
2023/11/02 00:42:51;;;;;;;1.05;0.80;;;9.20;67.10;;;;;;5076765;28;20029;-73
2023/11/02 00:45:16;;;;;;;2.53;0.90;;;9.20;66.80;;;;;;5076513;28;20052;-76
2023/11/02 00:47:42;;;;;;;1.42;0.40;;;9.20;66.90;;;;;;5076520;28;20483;-72
2023/11/02 00:50:45;;;;;;;1.02;0.50;;;9.20;67.20;;;;;;5076452;28;20097;-72
2023/11/02 00:53:11;;;;;;;2.25;0.70;;;9.10;67.60;;;;;;5076185;28;20028;-72
2023/11/02 00:55:37;;;;;;;1.95;0.80;;;9.10;68.10;;;;;;5074956;28;20016;-74
2023/11/02 00:58:09;;;;;;;1.60;0.75;;;9.00;68.30;;;;;;5076160;28;20390;-72
2023/11/02 01:01:10;;;;;;;0.90;0.60;;;9.00;68.60;;;;;;5074917;28;20031;-72
2023/11/02 01:03:35;;;;;;;2.15;0.70;;;8.90;69.20;;;;;;5053809;28;20125;-73
2023/11/02 01:06:01;;;;;;;3.88;0.60;;;9.00;69.60;;;;;;5074791;28;20028;-77
2023/11/02 01:08:31;;;;;;;3.30;0.70;;;8.90;69.80;;;;;;5076313;28;20401;-71
2023/11/02 01:10:57;;;;;;;3.60;0.82;;;8.90;70.20;;;;;;5075657;28;20044;-70
2023/11/02 01:13:22;;;;;;;0.50;0.50;;;8.90;70.70;;;;;;5075789;28;20043;-72
2023/11/02 01:15:53;;;;;;;2.40;0.60;;;8.90;70.90;;;;;;5075841;28;20023;-73
2023/11/02 01:18:19;;;;;;;1.63;1.30;;;9.00;70.80;;;;;;5075796;28;20056;-72
2023/11/02 01:21:03;;;;;;;1.13;0.63;;;8.90;70.90;;;;;;5075750;28;20075;-73
2023/11/02 01:23:30;;;;;;;1.75;1.58;;;9.00;70.80;;;;;;5075786;28;20021;-71
2023/11/02 01:25:56;;;;;;;1.55;0.75;;;9.00;70.60;;;;;;5075663;28;20161;-71
2023/11/02 01:28:40;;;;;;;1.25;0.88;;;9.10;70.40;;;;;;5075617;28;20021;-72
2023/11/02 01:31:17;;;;;;;2.00;0.73;;;9.10;70.30;;;;;;5074381;28;20059;-72
2023/11/02 01:34:00;;;;;;;1.58;1.02;;;9.20;71.10;;;;;;5075596;28;20115;-71
2023/11/02 01:36:29;;;;;;;1.92;0.70;;;9.30;70.20;;;;;;5075383;28;20025;-71
2023/11/02 01:39:15;;;;;;;1.50;0.73;;;9.30;70.30;;;;;;5075401;28;20032;-70
2023/11/02 01:41:48;;;;;;;1.45;1.00;;;9.30;70.10;;;;;;5054223;28;20528;-70
2023/11/02 01:44:36;;;;;;;1.65;1.08;;;9.30;70.10;;;;;;5075418;28;20065;-73
2023/11/02 01:47:37;;;;;;;2.85;1.63;;;9.30;71.00;;;;;;5072795;28;20025;-70
2023/11/02 01:50:32;;;;;;;3.05;1.30;;;9.20;71.90;;;;;;5075243;28;20024;-70
2023/11/02 01:53:35;;;;;;;3.17;1.92;;;9.10;73.00;;;;;;5066061;28;20055;-71
2023/11/02 01:56:18;;;;;;;2.00;1.75;;;9.10;74.00;;;;;;5074881;28;20021;-71
2023/11/02 01:59:07;;;;;;;3.55;1.90;;;9.10;74.10;;;;;;5075061;28;20025;-70
2023/11/02 02:01:41;;;;;;;3.72;2.53;;;9.00;74.70;;;;;;5035023;28;20065;-72
2023/11/02 02:04:19;;;;;;;4.60;2.85;;;9.00;75.40;;;;;;5035234;28;20041;-71
2023/11/02 02:07:25;;;;;;;3.88;3.47;;;8.90;76.10;;;;;;5034872;28;20335;-72
2023/11/02 02:10:07;;;;;;;3.78;3.20;;;8.90;76.30;;;;;;5032485;28;20511;-73
2023/11/02 02:12:44;;;;;;;5.22;3.60;;;8.80;77.20;;;;;;5034571;28;20044;-72
2023/11/02 02:15:26;;;;;;;4.43;3.30;;;8.80;77.50;;;;;;5034761;28;20017;-72
2023/11/02 02:18:15;;;;;;;5.03;4.25;;;8.70;77.90;;;;;;5034650;28;20025;-71
2023/11/02 02:20:47;;;;;;;5.45;3.72;;;8.70;78.30;;;;;;5027205;28;20034;-71
2023/11/02 02:23:25;;;;;;;6.32;3.75;;;8.70;78.60;;;;;;5034278;28;20533;-71
2023/11/02 02:26:22;;;;;;;4.22;3.65;;;8.70;78.10;;;;;;5051471;28;20497;-71
2023/11/02 02:28:57;;;;;;;4.13;3.65;;;8.70;78.10;;;;;;5054399;28;20108;-71
2023/11/02 02:31:52;;;;;;;3.60;3.25;;;8.70;78.10;;;;;;5054276;28;20033;-71
2023/11/02 02:34:48;;;;;;;3.95;3.35;;;8.80;77.60;;;;;;5038923;28;20029;-72
2023/11/02 02:37:19;;;;;;;4.68;3.20;;;8.90;77.70;;;;;;5054267;28;20028;-74
2023/11/02 02:39:54;;;;;;;5.13;3.00;;;8.90;77.20;;;;;;5052875;28;20398;-72
2023/11/02 02:42:21;;;;;;;3.33;3.00;;;8.90;77.10;;;;;;5054206;28;20575;-72
2023/11/02 02:44:49;;;;;;;6.15;2.83;;;8.90;77.00;;;;;;5054248;28;20487;-72
2023/11/02 02:47:19;;;;;;;4.75;2.75;;;8.90;77.00;;;;;;5054053;28;20029;-71
2023/11/02 02:49:49;;;;;;;5.20;2.65;;;8.90;76.50;;;;;;5054013;28;20021;-72
2023/11/02 02:52:18;;;;;;;2.72;2.10;;;9.00;76.20;;;;;;5053905;28;20041;-71
2023/11/02 02:54:46;;;;;;;2.13;1.90;;;9.00;75.60;;;;;;5052701;28;20025;-71
2023/11/02 02:57:12;;;;;;;3.28;1.80;;;9.10;75.20;;;;;;5053798;28;20021;-71
2023/11/02 02:59:42;;;;;;;1.73;1.45;;;9.20;74.80;;;;;;5053430;28;20025;-71
2023/11/02 03:02:11;;;;;;;2.08;1.52;;;9.20;74.80;;;;;;5053786;28;20021;-72
2023/11/02 03:04:36;;;;;;;1.83;1.38;;;9.20;74.20;;;;;;5053727;28;20043;-74
2023/11/02 03:07:03;;;;;;;2.55;1.80;;;9.30;73.30;;;;;;5052461;28;20362;-74
2023/11/02 03:09:36;;;;;;;3.30;1.67;;;9.40;73.20;;;;;;5052712;28;20105;-72
2023/11/02 03:12:04;;;;;;;2.03;1.30;;;9.40;72.30;;;;;;5052033;28;20098;-71
2023/11/02 03:14:33;;;;;;;2.90;1.60;;;9.50;72.10;;;;;;5052231;28;20142;-72
2023/11/02 03:17:05;;;;;;;2.95;2.13;;;9.50;71.80;;;;;;5052219;28;20421;-72
2023/11/02 03:19:47;;;;;;;4.00;2.08;;;9.60;71.90;;;;;;5053594;28;20021;-73
2023/11/02 03:22:16;;;;;;;3.58;2.30;;;9.60;72.40;;;;;;5053436;28;20064;-71
2023/11/02 03:24:58;;;;;;;6.47;2.15;;;9.60;72.70;;;;;;5053323;28;20028;-76
2023/11/02 03:28:05;;;;;;;6.18;2.55;;;9.50;73.10;;;;;;5053249;28;20100;-73
2023/11/02 03:30:33;;;;;;;;;;;9.50;73.20;;;;;;5053625;28;20047;-71
2023/11/02 03:33:17;;;;;;;3.55;2.80;;;9.50;73.20;;;;;;5052949;28;19913;-72
2023/11/02 03:35:58;;;;;;;2.88;2.30;;;9.50;74.10;;;;;;5051821;28;20040;-72
2023/11/02 03:38:36;;;;;;;3.42;2.75;;;9.40;73.50;;;;;;5053169;28;20093;-71
2023/11/02 03:41:10;;;;;;;6.35;2.78;;;9.40;73.30;;;;;;5051668;28;20071;-72
2023/11/02 03:43:47;;;;;;;3.65;3.22;;;9.50;73.40;;;;;;5052949;28;20174;-71
2023/11/02 03:46:13;;;;;;;6.55;2.97;;;9.50;73.70;;;;;;5051696;28;20029;-72
2023/11/02 03:49:31;;;;;;;5.75;3.13;;;9.50;74.10;;;;;;5052925;28;20074;-72
2023/11/02 03:52:12;;;;;;;3.50;2.88;;;9.40;74.20;;;;;;5045463;28;20375;-71
2023/11/02 03:55:10;;;;;;;4.18;2.97;;;9.40;74.40;;;;;;5052878;28;20035;-71
2023/11/02 03:57:59;;;;;;;6.13;3.05;;;9.40;75.00;;;;;;5052787;28;20055;-75
2023/11/02 04:00:28;;;;;;;3.38;2.58;;;9.30;75.90;;;;;;5052879;28;20029;-71
2023/11/02 04:03:00;;;;;;;3.47;2.83;;;9.30;75.50;;;;;;5052795;28;20474;-72
2023/11/02 04:05:28;;;;;;;4.35;2.78;;;9.20;75.80;;;;;;5052716;28;20087;-70
2023/11/02 04:08:17;;;;;;;6.78;3.08;;;9.20;75.60;;;;;;5051442;28;20059;-72
2023/11/02 04:11:08;;;;;;;5.10;2.53;;;9.20;75.40;;;;;;5051917;28;20033;-76
2023/11/02 04:14:09;;;;;;;3.65;2.28;;;9.20;74.70;;;;;;5050814;28;20048;-71
2023/11/02 04:16:35;;;;;;;3.92;2.20;;;9.20;74.30;;;;;;5051302;28;20023;-71
2023/11/02 04:19:02;;;;;;;3.00;2.33;;;9.30;74.10;;;;;;5051401;28;20112;-71
2023/11/02 04:21:28;;;;;;;3.45;2.28;;;9.30;74.50;;;;;;5052673;28;20023;-71
2023/11/02 04:23:53;;;;;;;4.10;2.35;;;9.30;74.70;;;;;;5052634;28;20021;-72
2023/11/02 04:26:19;;;;;;;2.35;1.90;;;9.30;74.80;;;;;;5053325;28;20032;-71
2023/11/02 04:28:44;;;;;;;4.22;1.90;;;9.30;74.70;;;;;;5054213;28;20055;-71
2023/11/02 04:31:10;;;;;;;2.70;1.80;;;9.30;73.80;;;;;;5052588;28;20449;-71
2023/11/02 04:33:35;;;;;;;2.03;1.63;;;9.30;73.40;;;;;;5052496;28;20106;-71
2023/11/02 04:36:01;;;;;;;2.38;1.40;;;9.40;73.10;;;;;;5052489;28;20022;-71
2023/11/02 04:38:27;;;;;;;1.65;1.42;;;9.40;72.50;;;;;;5052483;28;20025;-71
2023/11/02 04:40:58;;;;;;;2.45;1.70;;;9.40;72.30;;;;;;5052436;28;20470;-72
2023/11/02 04:43:24;;;;;;;2.47;1.63;;;9.40;72.20;;;;;;5052352;28;20373;-71
2023/11/02 04:45:49;;;;;;;3.63;1.90;;;9.40;72.00;;;;;;5052342;28;20021;-71
2023/11/02 04:48:15;;;;;;;2.25;1.83;;;9.50;72.20;;;;;;5052268;28;20477;-71
2023/11/02 04:50:40;;;;;;;2.22;1.90;;;9.40;72.10;;;;;;5052263;28;20037;-71
2023/11/02 04:53:06;;;;;;;2.10;1.85;;;9.50;71.60;;;;;;5052263;28;20048;-71
2023/11/02 04:55:32;;;;;;;2.10;1.20;;;9.50;71.10;;;;;;5052050;28;20024;-72
2023/11/02 04:57:58;;;;;;;1.48;1.23;;;9.60;70.00;;;;;;5051900;28;20107;-70
2023/11/02 05:00:24;;;;;;;2.00;1.25;;;9.60;69.90;;;;;;5052116;28;20021;-72
2023/11/02 05:02:49;;;;;;;2.28;1.20;;;9.70;68.80;;;;;;5052331;28;20040;-71
2023/11/02 05:05:15;;;;;;;1.33;1.10;;;9.70;68.40;;;;;;5052092;28;20024;-71
2023/11/02 05:07:40;;;;;;;1.20;0.95;;;9.80;67.80;;;;;;5052215;28;20021;-72
2023/11/02 05:10:07;;;;;;;1.65;1.00;;;9.90;67.40;;;;;;5051920;28;20095;-72
2023/11/02 05:12:32;;;;;;;1.35;0.77;;;10.00;66.50;;;;;;5052020;28;20458;-71
2023/11/02 05:14:57;;;;;;;1.10;0.75;;;10.10;65.70;;;;;;5052088;28;20029;-71
2023/11/02 05:17:23;;;;;;;2.42;0.80;;;10.20;65.30;;;;;;5052188;28;20029;-72
2023/11/02 05:19:48;;;;;;;0.95;0.60;;;10.20;64.90;;;;;;5051993;28;20026;-70
2023/11/02 05:22:14;;;;;;;3.72;0.90;;;10.20;64.30;;;;;;5054601;28;20078;-72
2023/11/02 05:24:39;;;;;;;1.10;0.93;;;10.20;64.10;;;;;;5055582;28;20325;-72
2023/11/02 05:27:05;;;;;;;1.05;0.75;;;10.20;63.70;;;;;;5055626;28;20366;-70
2023/11/02 05:29:31;;;;;;;2.83;0.82;;;10.30;63.80;;;;;;5055815;28;20514;-71
2023/11/02 05:31:56;;;;;;;2.00;0.85;;;10.20;63.70;;;;;;5055340;28;20428;-70
2023/11/02 05:34:22;;;;;;;1.55;0.80;;;10.30;64.00;;;;;;5055744;28;20461;-70
2023/11/02 05:36:47;;;;;;;4.15;1.10;;;10.30;63.80;;;;;;5055375;28;20092;-70
2023/11/02 05:39:13;;;;;;;2.05;0.80;;;10.30;63.80;;;;;;5055293;28;20036;-70
2023/11/02 05:41:38;;;;;;;1.23;0.80;;;10.30;64.20;;;;;;5055219;28;20021;-71
2023/11/02 05:44:05;;;;;;;1.45;0.80;;;10.20;64.60;;;;;;5053911;28;20021;-70
2023/11/02 05:46:31;;;;;;;1.85;0.70;;;10.20;65.00;;;;;;5055177;28;20424;-70
2023/11/02 05:48:56;;;;;;;1.10;0.98;;;10.10;65.30;;;;;;5054947;28;20025;-70
2023/11/02 05:51:22;;;;;;;1.83;1.15;;;10.10;65.90;;;;;;5055061;28;20021;-70
2023/11/02 05:53:48;;;;;;;2.90;1.30;;;10.00;66.70;;;;;;5053820;28;20028;-70
2023/11/02 05:56:16;;;;;;;1.80;1.10;;;10.00;67.50;;;;;;5055030;28;20017;-70
2023/11/02 05:58:43;;;;;;;1.75;0.98;;;10.00;68.20;;;;;;5054959;28;20425;-71
2023/11/02 06:01:09;;;;;;;0.93;0.82;;;9.90;68.80;;;;;;5055091;28;20074;-70
2023/11/02 06:03:34;;;;;;;3.63;0.50;;;9.90;68.90;;;;;;5055231;28;20039;-70
2023/11/02 06:06:00;;;;;;;5.13;1.08;;;9.80;69.40;;;;;;5054904;28;20025;-71
2023/11/02 06:08:25;;;;;;;1.42;0.80;;;9.80;70.10;;;;;;5046323;28;20037;-70
2023/11/02 06:10:51;;;;;;;2.22;0.70;;;9.80;70.90;;;;;;5034960;28;20037;-70
2023/11/02 06:13:17;;;;;;;5.85;1.00;;;9.70;72.10;;;;;;5034690;28;20094;-70
2023/11/02 06:15:42;;;;;;;0.85;0.70;;;9.70;73.70;;;;;;5035053;28;20057;-70
2023/11/02 06:18:08;;;;;;;1.50;0.82;;;9.60;73.90;;;;;;5034729;28;20103;-71
2023/11/02 06:20:34;;;;;;;2.67;0.98;;;9.60;74.70;;;;;;5034718;28;20029;-71
2023/11/02 06:23:01;;;;;;;1.40;0.80;;;9.60;76.40;;;;;;5034745;28;20142;-71
2023/11/02 06:25:27;;;;;;;2.15;0.70;;;9.70;76.40;;;;;;5034501;28;20113;-71
2023/11/02 06:27:53;;;;;;;1.75;0.90;;;9.60;76.40;;;;;;5034267;28;20357;-71
2023/11/02 06:30:19;;;;;;;1.48;0.90;;;9.70;77.00;;;;;;5033170;28;20121;-71
2023/11/02 06:32:45;;;;;;;2.22;1.00;;;9.70;77.20;;;;;;5033477;28;20038;-70
2023/11/02 06:35:10;;;;;;;7.28;0.90;;;9.70;77.90;;;;;;5034253;28;20025;-71
2023/11/02 06:38:08;;;;;;;1.95;0.85;;;9.70;78.00;;;;;;5034319;28;20029;-71
2023/11/02 06:40:34;;;;;;;1.25;0.75;;;9.60;77.30;;;;;;5011892;28;20494;-71
2023/11/02 06:42:59;;;;;;;3.33;0.88;;;9.60;75.80;;;;;;5034133;28;20052;-70
2023/11/02 06:45:25;;;;;;;1.70;0.82;;;9.70;76.70;;;;;;5034169;28;20033;-71
2023/11/02 06:47:51;;;;;;;1.67;0.90;;;9.70;77.10;;;;;;5033826;28;20030;-70
2023/11/02 06:50:17;;;;;;;2.25;0.88;;;9.70;78.20;;;;;;5039558;28;20025;-71
2023/11/02 06:52:43;;;;;;;1.88;0.85;;;9.70;78.90;;;;;;5053750;28;20116;-70
2023/11/02 06:55:09;;;;;;;2.28;0.80;;;9.70;78.50;;;;;;5053675;28;20053;-71
2023/11/02 06:57:35;;;;;;;1.80;1.10;;;9.70;77.10;;;;;;5054022;28;20021;-72
2023/11/02 07:00:00;;;;;;;1.48;0.90;;;9.60;78.00;;;;;;5053742;28;20040;-71
2023/11/02 07:02:26;;;;;;;3.55;1.50;;;9.50;78.00;;;;;;5053812;28;20048;-71
2023/11/02 07:04:55;;;;;;;2.08;0.80;;;9.50;78.40;;;;;;5053685;28;20025;-70
2023/11/02 07:07:21;;;;;;;1.83;1.13;;;9.40;79.50;;;;;;5053973;28;20036;-69
2023/11/02 07:09:53;;;;;;;8.35;2.22;;;9.40;79.70;;;;;;5058515;28;20032;-76
2023/11/02 07:12:19;;;;;;;5.63;1.60;;;9.60;88.50;;;;;;5052042;28;20037;-76
2023/11/02 07:14:48;;;;;;;10.55;1.58;;;9.80;89.60;;;;;;5053486;28;20032;-75
2023/11/02 07:17:16;;;;;;;3.67;1.65;;;10.00;87.50;;;;;;5052477;28;20070;-76
2023/11/02 07:19:41;;;;;;;2.42;1.42;;;10.40;85.50;;;;;;5051992;28;20493;-72
2023/11/02 07:22:07;;;;;;;1.67;1.10;;;10.80;82.90;;;;;;5053650;28;20037;-75
2023/11/02 07:24:32;;;;;;;4.72;1.58;;;11.10;80.00;;;;;;5052011;28;20039;-75
2023/11/02 07:26:58;;;;;;;3.65;2.00;;;11.00;78.00;;;;;;5053214;28;20025;-74
2023/11/02 07:29:24;;;;;;;2.90;1.30;;;11.10;77.40;;;;;;5051953;28;20025;-73
2023/11/02 07:31:50;;;;;;;2.83;1.83;;;11.10;75.10;;;;;;5053014;28;20524;-75
2023/11/02 07:34:15;;;;;;;4.43;2.35;;;10.80;75.10;;;;;;5052277;28;20465;-73
2023/11/02 07:36:41;;;;;;;5.30;2.78;;;10.60;75.70;;;;;;5053004;28;20075;-75
2023/11/02 07:39:06;;;;;;;5.90;3.25;;;10.40;76.90;;;;;;5053155;28;20515;-74
2023/11/02 07:41:32;;;;;;;3.40;2.10;;;10.00;78.00;;;;;;5053131;28;20482;-76
2023/11/02 07:43:59;;;;;;;4.18;2.20;;;9.80;78.50;;;;;;5052895;28;20025;-76
2023/11/02 07:46:25;;;;;;;2.55;1.33;;;9.60;79.60;;;;;;5052713;28;20535;-76
2023/11/02 07:48:51;;;;;;;2.78;1.60;;;9.50;80.50;;;;;;5053081;28;20042;-76
2023/11/02 07:51:16;;;;;;;2.20;0.80;;;9.50;81.80;;;;;;5053018;28;20020;-76
2023/11/02 07:53:42;;;;;;;1.35;0.70;;;9.40;82.60;;;;;;5053165;28;20112;-77
2023/11/02 07:56:11;;;;;;;2.67;1.20;;;9.40;81.50;;;;;;5052944;28;20154;-79
2023/11/02 07:58:42;;;;;;;10.68;3.22;;;9.50;82.30;;;;;;5053007;28;20122;-71
2023/11/02 08:01:10;;;;;;;8.73;3.80;;;9.50;81.80;;;;;;5053239;28;20024;-73
2023/11/02 08:03:36;;;;;;;3.72;2.00;;;9.50;82.40;;;;;;5053052;28;20036;-72
2023/11/02 08:06:02;;;;;;;2.47;1.60;;;9.40;82.40;;;;;;5052229;28;20025;-70
2023/11/02 08:08:27;;;;;;;3.13;1.27;;;9.40;82.60;;;;;;5052769;28;20036;-69
2023/11/02 08:10:54;;;;;;;1.92;1.20;;;9.30;83.50;;;;;;5052505;28;20409;-70
2023/11/02 08:13:20;;;;;;;2.00;1.27;;;9.30;83.50;;;;;;5053015;28;20037;-69
2023/11/02 08:15:46;;;;;;;2.58;1.15;;;9.30;83.80;;;;;;5052707;28;20035;-69
2023/11/02 08:18:11;;;;;;;3.17;1.27;;;9.40;83.90;;;;;;5052549;28;20037;-69
2023/11/02 08:20:37;;;;;;;3.92;1.13;;;9.40;83.60;;;;;;5052797;28;20051;-69
2023/11/02 08:23:02;;;;;;;3.20;0.90;;;9.50;83.60;;;;;;5052909;28;20031;-70
2023/11/02 08:25:28;;;;;;;1.25;0.70;;;9.50;84.10;;;;;;5052926;28;20388;-71
2023/11/02 08:27:57;;;;;;;1.25;0.60;;;9.50;84.40;;;;;;5053121;28;20028;-76
2023/11/02 08:30:29;;;;;;;0.77;0.60;;;9.60;83.50;;;;;;5053325;28;20033;-74
2023/11/02 08:32:55;;;;;;;1.00;0.60;;;9.60;83.60;;;;;;5054061;28;20052;-69
2023/11/02 08:35:21;;;;;;;0.93;0.80;;;9.70;82.90;;;;;;5053109;28;20025;-75
2023/11/02 08:37:51;;;;;;;1.02;0.70;;;9.80;82.00;;;;;;5052770;28;20029;-80
2023/11/02 08:40:19;;;;;;;2.55;1.42;;;9.90;82.50;;;;;;5052768;28;20052;-69
2023/11/02 08:42:45;;;;;;;2.00;1.13;;;9.90;82.80;;;;;;5051061;28;20021;-69
2023/11/02 08:45:15;;;;;;;1.20;1.00;;;9.90;83.00;;;;;;5052393;28;20512;-71
2023/11/02 08:47:41;;;;;;;1.35;0.80;;;10.00;82.60;;;;;;5051488;28;20036;-68
2023/11/02 08:50:08;;;;;;;1.42;0.95;;;10.10;82.90;;;;;;5052780;28;20036;-84
2023/11/02 08:52:34;;;;;;;1.20;0.88;;;10.20;83.10;;;;;;5053444;28;20044;-70
2023/11/02 08:55:00;;;;;;;6.10;2.85;;;10.20;82.60;;;;;;5052178;28;20025;-69
2023/11/02 08:57:26;;;;;;;5.80;2.28;;;10.30;82.40;;;;;;5055038;28;20040;-70
2023/11/02 08:59:52;;;;;;;1.60;0.80;;;10.40;82.30;;;;;;5056302;28;20436;-79
2023/11/02 09:02:18;;;;;;;2.67;0.60;;;10.40;81.20;;;;;;5056153;28;20017;-70
2023/11/02 09:04:44;;;;;;;0.98;0.40;;;10.60;81.10;;;;;;5055857;28;20036;-70
2023/11/02 09:07:09;;;;;;;1.13;0.43;;;10.70;80.20;;;;;;5055635;28;20013;-70
2023/11/02 09:09:35;;;;;;;0.43;0.40;;;10.80;76.90;;;;;;5055720;28;20366;-70
2023/11/02 09:12:00;;;;;;;1.50;0.30;;;11.10;77.00;;;;;;5055565;28;20065;-70
2023/11/02 09:14:26;;;;;;;2.15;0.40;;;11.10;78.00;;;;;;5055503;28;20040;-70
2023/11/02 09:16:51;;;;;;;0.57;0.40;;;11.10;77.20;;;;;;5055755;28;20029;-70
2023/11/02 09:19:17;;;;;;;0.43;0.30;;;11.30;75.70;;;;;;5054443;28;20482;-69
2023/11/02 09:21:43;;;;;;;0.85;0.38;;;11.30;76.30;;;;;;5055673;28;20075;-69
2023/11/02 09:24:09;;;;;;;0.82;0.43;;;11.30;77.70;;;;;;5055540;28;20114;-70
2023/11/02 09:26:37;;;;;;;3.85;0.20;;;11.20;78.60;;;;;;5055814;28;20029;-70
2023/11/02 09:29:03;;;;;;;0.10;0.10;;;11.10;78.80;;;;;;5056116;28;20029;-70
2023/11/02 09:31:29;;;;;;;0.63;0.30;;;11.10;78.30;;;;;;5055523;28;20021;-69
2023/11/02 09:34:01;;;;;;;0.55;0.20;;;11.10;78.50;;;;;;5055402;28;20452;-82
2023/11/02 09:36:27;;;;;;;1.23;0.30;;;11.10;78.70;;;;;;5055509;28;20025;-70
2023/11/02 09:38:53;;;;;;;0.30;0.20;;;11.00;79.60;;;;;;5054089;28;20441;-77
2023/11/02 09:41:19;;;;;;;0.88;0.30;;;11.00;77.90;;;;;;5055450;28;20103;-71
2023/11/02 09:43:45;;;;;;;0.75;0.30;;;10.90;78.30;;;;;;5054848;28;20100;-73
2023/11/02 09:46:12;;;;;;;2.10;1.17;;;11.00;76.00;;;;;;5056238;28;20035;-71
2023/11/02 09:48:38;;;;;;;0.60;0.45;;;10.90;78.70;;;;;;5055386;28;20024;-69
2023/11/02 09:51:05;;;;;;;1.08;0.30;;;10.80;78.30;;;;;;5055048;28;20029;-70
2023/11/02 09:53:31;;;;;;;1.88;0.50;;;10.80;79.00;;;;;;5055076;28;20033;-69
2023/11/02 09:55:57;;;;;;;0.45;0.28;;;10.80;79.70;;;;;;5055300;28;20029;-73
2023/11/02 09:58:24;;;;;;;1.08;0.30;;;10.70;79.50;;;;;;5055164;28;20029;-69
2023/11/02 10:00:50;;;;;;;0.45;0.22;;;10.70;80.10;;;;;;5054833;28;20025;-69
2023/11/02 10:03:17;;;;;;;1.02;0.25;;;10.70;79.10;;;;;;5053608;28;20029;-71
2023/11/02 10:05:44;;;;;;;0.43;0.32;;;10.60;79.80;;;;;;5054576;28;20025;-69
2023/11/02 10:08:10;;;;;;;0.32;0.20;;;10.60;79.70;;;;;;5053629;28;20355;-70
2023/11/02 10:10:35;;;;;;;0.20;0.20;;;10.60;78.40;;;;;;5054658;28;20056;-70
2023/11/02 10:13:02;;;;;;;1.05;0.20;;;10.50;77.80;;;;;;5054674;28;20118;-71
2023/11/02 10:15:29;;;;;;;1.65;0.40;;;10.50;77.00;;;;;;5053318;28;20032;-70
2023/11/02 10:17:55;;;;;;;0.50;0.50;;;10.50;78.60;;;;;;5054409;28;20035;-70
2023/11/02 10:20:21;;;;;;;1.13;0.50;;;10.50;77.80;;;;;;5055094;28;20472;-73
2023/11/02 10:23:05;;;;;;;2.95;0.40;;;10.50;77.20;;;;;;5054198;28;20094;-71
2023/11/02 10:25:31;;;;;;;2.88;0.30;;;10.40;76.90;;;;;;5054455;28;20035;-70
2023/11/02 10:27:58;;;;;;;0.75;0.30;;;10.40;78.30;;;;;;5054335;28;20103;-71
2023/11/02 10:30:25;;;;;;;1.58;0.63;;;10.20;77.20;;;;;;5054471;28;20065;-70
2023/11/02 10:32:50;;;;;;;1.83;0.40;;;10.20;79.30;;;;;;5054492;28;20033;-70
2023/11/02 10:35:16;;;;;;;0.47;0.30;;;10.10;80.50;;;;;;5054239;28;20025;-69
2023/11/02 10:37:43;;;;;;;0.77;0.38;;;10.10;80.40;;;;;;5054234;28;20031;-72
2023/11/02 10:40:10;;;;;;;0.98;0.52;;;10.10;79.50;;;;;;5054330;28;20027;-73
2023/11/02 10:42:39;;;;;;;1.25;0.50;;;10.10;79.30;;;;;;5054433;28;20029;-71
2023/11/02 10:45:06;;;;;;;0.60;0.40;;;10.10;79.60;;;;;;5054476;28;20044;-70
2023/11/02 10:47:37;;;;;;;1.13;0.40;;;10.10;80.70;;;;;;5053955;28;20029;-71
2023/11/02 10:50:06;;;;;;;1.02;0.30;;;10.00;79.50;;;;;;5054288;28;20021;-70
2023/11/02 10:52:46;;;;;;;0.80;0.30;;;10.10;79.60;;;;;;5053947;28;20039;-71
2023/11/02 10:55:25;;;;;;;0.68;0.40;;;10.00;79.50;;;;;;5054049;28;20107;-73
2023/11/02 10:57:53;;;;;;;0.50;0.38;;;10.00;78.50;;;;;;5052505;28;20416;-70
2023/11/02 11:00:21;;;;;;;1.92;0.60;;;10.00;78.70;;;;;;5053649;28;20111;-70
2023/11/02 11:02:49;;;;;;;0.68;0.35;;;10.00;78.20;;;;;;5054351;28;20033;-70
2023/11/02 11:05:15;;;;;;;1.00;0.63;;;10.00;78.50;;;;;;5053444;28;20130;-70
2023/11/02 11:07:42;;;;;;;1.27;0.50;;;10.00;80.00;;;;;;5053805;28;20052;-70
2023/11/02 11:10:14;;;;;;;0.75;0.57;;;9.90;80.10;;;;;;5053212;28;20473;-70
2023/11/02 11:12:41;;;;;;;0.32;0.30;;;9.90;79.80;;;;;;5052043;28;20461;-69
2023/11/02 11:15:10;;;;;;;1.90;0.40;;;9.90;79.40;;;;;;5053502;28;20469;-78
2023/11/02 11:17:41;;;;;;;1.40;0.40;;;9.90;80.20;;;;;;5062811;28;20401;-78
2023/11/02 11:20:07;;;;;;;1.38;0.63;;;9.90;81.00;;;;;;5074034;28;20077;-78
2023/11/02 11:22:34;;;;;;;1.52;0.17;;;9.90;78.80;;;;;;5056192;28;20116;-71
2023/11/02 11:25:04;;;;;;;0.25;0.20;;;9.90;78.80;;;;;;5053542;28;20021;-76
2023/11/02 11:27:38;;;;;;;0.95;0.40;;;9.90;79.10;;;;;;5053250;28;20019;-80
2023/11/02 11:30:06;;;;;;;0.80;0.30;;;9.90;77.80;;;;;;5052048;28;20587;-75
2023/11/02 11:32:36;;;;;;;2.65;0.25;;;10.00;78.40;;;;;;5053204;28;20029;-75
2023/11/02 11:35:06;;;;;;;0.40;0.20;;;10.00;76.70;;;;;;5051779;28;20028;-74
2023/11/02 11:37:41;;;;;;;1.83;0.30;;;10.00;74.80;;;;;;5053222;28;20529;-74
2023/11/02 11:40:29;;;;;;;0.43;0.32;;;10.00;76.30;;;;;;5053523;28;20109;-76
2023/11/02 11:43:05;;;;;;;0.52;0.50;;;10.00;76.30;;;;;;5046680;28;20040;-80
2023/11/02 11:45:43;;;;;;;0.63;0.40;;;10.00;76.90;;;;;;5051894;28;20121;-78
2023/11/02 11:48:12;;;;;;;1.23;0.43;;;10.00;76.80;;;;;;5053241;28;20538;-76
2023/11/02 11:50:40;;;;;;;0.25;0.20;;;10.00;76.60;;;;;;5052822;28;20029;-76
2023/11/02 11:53:15;;;;;;;0.47;0.40;;;9.90;77.10;;;;;;5053322;28;20079;-72
2023/11/02 11:55:42;;;;;;;1.02;0.52;;;9.90;77.70;;;;;;5053189;28;20028;-76
2023/11/02 11:58:08;;;;;;;1.23;0.50;;;9.90;76.60;;;;;;5053233;28;20090;-78
2023/11/02 12:00:35;;;;;;;0.52;0.30;;;9.90;76.80;;;;;;5053527;28;20021;-76
2023/11/02 12:03:05;;;;;;;1.30;0.47;;;9.90;75.80;;;;;;5051725;28;20033;-69
2023/11/02 12:05:42;;;;;;;0.73;0.32;;;9.90;76.10;;;;;;5072909;28;20100;-69
2023/11/02 12:08:09;;;;;;;1.75;0.57;;;10.00;76.20;;;;;;5067585;28;20063;-70
2023/11/02 12:10:55;;;;;;;1.98;0.40;;;10.00;76.10;;;;;;5032636;28;20402;-74
2023/11/02 12:13:21;;;;;;;1.65;0.60;;;9.90;77.30;;;;;;5033140;28;20079;-78
2023/11/02 12:15:50;;;;;;;1.65;0.40;;;9.80;77.20;;;;;;5033488;28;20500;-70
2023/11/02 12:18:18;;;;;;;0.65;0.35;;;9.80;76.80;;;;;;5034182;28;20037;-78
2023/11/02 12:20:44;;;;;;;2.13;0.50;;;9.80;75.40;;;;;;5033024;28;20489;-73
2023/11/02 12:23:12;;;;;;;0.82;0.47;;;9.80;76.50;;;;;;5032469;28;20030;-73
2023/11/02 12:25:39;;;;;;;1.25;0.40;;;9.80;77.10;;;;;;5032854;28;20104;-72
2023/11/02 12:28:11;;;;;;;2.92;0.32;;;9.70;77.00;;;;;;5033095;28;20034;-79
2023/11/02 12:30:44;;;;;;;1.05;0.55;;;9.70;77.10;;;;;;5033188;28;20473;-73
2023/11/02 12:33:10;;;;;;;0.50;0.30;;;9.70;76.20;;;;;;5036674;28;20037;-77
2023/11/02 12:35:35;;;;;;;0.73;0.30;;;9.70;75.90;;;;;;5036929;28;20087;-79
2023/11/02 12:38:03;;;;;;;0.70;0.25;;;9.70;76.00;;;;;;5036640;28;20033;-78
2023/11/02 12:40:48;;;;;;;1.65;0.30;;;9.60;76.00;;;;;;5036493;28;20017;-78
2023/11/02 12:43:23;;;;;;;0.80;0.35;;;9.60;76.10;;;;;;5036599;28;20026;-77
2023/11/02 12:45:54;;;;;;;0.63;0.28;;;9.50;77.00;;;;;;5036560;28;20504;-80
2023/11/02 12:48:32;;;;;;;0.95;0.22;;;9.50;78.10;;;;;;5036561;28;20104;-81
2023/11/02 12:51:13;;;;;;;0.80;0.20;;;9.50;76.00;;;;;;5036446;28;20025;-75
2023/11/02 12:53:38;;;;;;;1.63;0.32;;;9.50;75.10;;;;;;5036027;28;20029;-75
2023/11/02 12:56:05;;;;;;;0.68;0.30;;;9.50;77.00;;;;;;5034817;28;20083;-78
2023/11/02 12:58:30;;;;;;;0.43;0.28;;;9.50;74.30;;;;;;5036222;28;20053;-79
2023/11/02 13:01:00;;;;;;;0.73;0.50;;;9.60;75.40;;;;;;5036074;28;20064;-78
2023/11/02 13:03:26;;;;;;;0.40;0.20;;;9.50;76.90;;;;;;5034955;28;20076;-78
2023/11/02 13:05:52;;;;;;;1.13;0.45;;;9.50;76.70;;;;;;5036146;28;20025;-71
2023/11/02 13:08:27;;;;;;;0.57;0.10;;;9.50;78.20;;;;;;5035932;28;20021;-77
2023/11/02 13:10:52;;;;;;;1.35;0.63;;;9.40;76.30;;;;;;5035862;28;20045;-79